createdAt,value
2023-01-13T00:01:31.408Z,62.30
2023-01-13T00:04:00.360Z,68.50
2023-01-13T00:06:29.479Z,60.30
2023-01-13T00:08:58.017Z,58.00
2023-01-13T00:11:26.535Z,61.90
2023-01-13T00:13:54.856Z,63.20
2023-01-13T00:16:22.924Z,55.00
2023-01-13T00:18:54.095Z,62.70
2023-01-13T00:21:24.688Z,58.10
2023-01-13T00:26:24.765Z,57.00
2023-01-13T00:29:00.335Z,53.50
2023-01-13T00:31:30.036Z,58.00
2023-01-13T00:34:00.326Z,58.30
2023-01-13T00:36:30.728Z,45.80
2023-01-13T00:38:59.271Z,55.00
2023-01-13T00:42:11.077Z,33.60
2023-01-13T00:44:39.863Z,34.80
2023-01-13T00:47:23.447Z,34.20
2023-01-13T00:49:51.450Z,30.60
2023-01-13T00:52:19.405Z,50.40
2023-01-13T00:54:47.398Z,50.90
2023-01-13T00:57:15.640Z,41.50
2023-01-13T00:59:52.933Z,55.20
2023-01-13T01:02:31.030Z,53.70
2023-01-13T01:05:00.076Z,56.80
2023-01-13T01:07:58.886Z,47.50
2023-01-13T01:10:40.745Z,51.70
2023-01-13T01:13:12.083Z,50.50
2023-01-13T01:15:41.414Z,60.10
2023-01-13T01:18:09.457Z,65.20
2023-01-13T01:20:37.774Z,59.20
2023-01-13T01:23:05.932Z,54.70
2023-01-13T01:25:34.221Z,59.40
2023-01-13T01:28:04.296Z,42.10
2023-01-13T01:30:32.399Z,52.30
2023-01-13T01:33:03.254Z,52.60
2023-01-13T01:35:31.404Z,48.60
2023-01-13T01:37:59.553Z,57.80
2023-01-13T01:40:27.757Z,58.20
2023-01-13T01:43:14.342Z,63.70
2023-01-13T01:45:42.244Z,61.80
2023-01-13T01:48:11.308Z,58.60
2023-01-13T01:50:40.379Z,60.50
2023-01-13T01:53:16.558Z,64.80
2023-01-13T01:55:45.298Z,68.40
2023-01-13T01:58:20.322Z,67.90
2023-01-13T02:00:48.873Z,66.70
2023-01-13T02:03:18.039Z,59.40
2023-01-13T02:05:45.991Z,61.20
2023-01-13T02:08:14.301Z,63.90
2023-01-13T02:10:46.240Z,60.20
2023-01-13T02:13:14.423Z,61.40
2023-01-13T02:16:03.817Z,55.70
2023-01-13T02:18:50.569Z,63.30
2023-01-13T02:22:01.359Z,61.70
2023-01-13T02:27:51.231Z,52.70
2023-01-13T02:30:49.409Z,56.00
2023-01-13T02:33:27.858Z,58.40
2023-01-13T02:36:06.430Z,64.00
2023-01-13T02:38:47.998Z,55.30
2023-01-13T02:41:47.256Z,60.20
2023-01-13T02:44:20.768Z,57.30
2023-01-13T02:46:52.234Z,55.00
2023-01-13T02:49:34.712Z,57.80
2023-01-13T02:52:41.988Z,53.00
2023-01-13T02:55:17.483Z,45.10
2023-01-13T02:57:48.450Z,49.40
2023-01-13T03:00:18.699Z,46.80
2023-01-13T03:02:48.609Z,43.10
2023-01-13T03:05:17.670Z,43.50
2023-01-13T03:08:15.885Z,45.00
2023-01-13T03:11:10.196Z,49.70
2023-01-13T03:13:56.644Z,43.80
2023-01-13T03:16:59.377Z,41.00
2023-01-13T03:19:34.543Z,43.20
2023-01-13T03:22:31.194Z,43.10
2023-01-13T03:25:07.169Z,39.90
2023-01-13T03:27:50.842Z,41.80
2023-01-13T03:30:50.746Z,43.40
2023-01-13T03:33:25.664Z,39.50
2023-01-13T03:35:57.599Z,47.30
2023-01-13T03:38:37.114Z,41.20
2023-01-13T03:41:21.905Z,44.10
2023-01-13T03:44:22.447Z,45.30
2023-01-13T03:47:02.337Z,40.20
2023-01-13T03:49:45.341Z,48.60
2023-01-13T03:52:26.071Z,52.10
2023-01-13T03:55:04.387Z,44.40
2023-01-13T03:57:42.522Z,46.40
2023-01-13T04:02:49.371Z,42.00
2023-01-13T04:05:18.580Z,44.00
2023-01-13T04:08:21.981Z,54.30
2023-01-13T04:10:55.308Z,42.40
2023-01-13T04:13:26.348Z,42.80
2023-01-13T04:15:54.497Z,49.90
2023-01-13T04:18:26.848Z,49.70
2023-01-13T04:20:58.227Z,48.70
2023-01-13T04:23:27.909Z,47.00
2023-01-13T04:25:56.594Z,42.80
2023-01-13T04:28:25.664Z,38.20
2023-01-13T04:30:53.701Z,36.60
2023-01-13T04:33:21.728Z,36.50
2023-01-13T04:35:49.757Z,42.00
2023-01-13T04:38:20.210Z,35.80
2023-01-13T04:40:48.807Z,31.50
2023-01-13T04:43:17.362Z,32.70
2023-01-13T04:45:45.439Z,31.80
2023-01-13T04:48:13.914Z,33.00
2023-01-13T04:50:41.935Z,30.90
2023-01-13T04:53:09.887Z,34.10
2023-01-13T04:55:38.055Z,34.30
2023-01-13T04:58:08.782Z,33.80
2023-01-13T05:00:37.639Z,29.20
2023-01-13T05:03:05.764Z,34.10
2023-01-13T05:05:34.238Z,40.60
2023-01-13T05:08:02.301Z,35.10
2023-01-13T05:10:30.570Z,37.90
2023-01-13T05:13:17.303Z,31.90
2023-01-13T05:16:06.397Z,36.40
2023-01-13T05:18:34.955Z,35.60
2023-01-13T05:21:03.014Z,37.50
2023-01-13T05:23:49.575Z,35.30
2023-01-13T05:26:17.504Z,41.10
2023-01-13T05:28:45.440Z,38.30
2023-01-13T05:31:15.066Z,38.40
2023-01-13T05:33:43.209Z,36.30
2023-01-13T05:36:11.338Z,38.00
2023-01-13T05:38:39.654Z,34.40
2023-01-13T05:41:46.624Z,38.30
2023-01-13T05:44:14.705Z,36.20
2023-01-13T05:46:42.684Z,38.50
2023-01-13T05:49:10.646Z,42.00
2023-01-13T05:51:41.012Z,37.60
2023-01-13T05:54:09.008Z,35.60
2023-01-13T05:56:37.703Z,35.90
2023-01-13T05:59:05.735Z,33.20
2023-01-13T06:01:34.107Z,32.50
2023-01-13T06:04:02.105Z,35.20
2023-01-13T06:06:33.131Z,28.60
2023-01-13T06:09:01.299Z,31.10
2023-01-13T06:11:29.564Z,30.30
2023-01-13T06:13:57.462Z,30.50
2023-01-13T06:16:25.495Z,30.00
2023-01-13T06:18:54.676Z,28.60
2023-01-13T06:21:22.724Z,32.60
2023-01-13T06:23:50.838Z,30.90
2023-01-13T06:26:24.095Z,33.40
2023-01-13T06:28:52.131Z,30.20
2023-01-13T06:31:20.566Z,30.60
2023-01-13T06:33:59.520Z,31.40
2023-01-13T06:36:34.357Z,31.90
2023-01-13T06:39:04.332Z,31.40
2023-01-13T06:41:52.104Z,29.60
2023-01-13T06:44:22.775Z,26.90
2023-01-13T06:49:21.606Z,29.40
2023-01-13T06:51:50.429Z,34.30
2023-01-13T06:54:18.477Z,32.60
2023-01-13T06:56:46.429Z,36.30
2023-01-13T06:59:14.457Z,44.50
2023-01-13T07:01:42.739Z,44.60
2023-01-13T07:04:10.965Z,37.90
2023-01-13T07:06:38.948Z,33.60
2023-01-13T07:09:07.054Z,32.20
2023-01-13T07:11:35.016Z,32.30
2023-01-13T07:14:21.510Z,38.90
2023-01-13T07:16:49.479Z,36.60
2023-01-13T07:19:23.339Z,34.00
2023-01-13T07:21:52.429Z,34.50
2023-01-13T07:24:20.689Z,36.00
2023-01-13T07:26:50.494Z,35.70
2023-01-13T07:29:18.715Z,36.60
2023-01-13T07:31:49.741Z,36.00
2023-01-13T07:34:17.948Z,36.70
2023-01-13T07:36:45.882Z,37.30
2023-01-13T07:39:13.934Z,41.40
2023-01-13T07:42:14.230Z,42.60
2023-01-13T07:44:42.326Z,37.10
2023-01-13T07:47:11.325Z,35.90
2023-01-13T07:49:39.555Z,35.70
2023-01-13T07:52:07.633Z,41.10
2023-01-13T07:54:41.086Z,41.30
2023-01-13T07:57:09.553Z,44.20
2023-01-13T07:59:37.571Z,55.60
2023-01-13T08:02:05.882Z,41.70
2023-01-13T08:04:34.164Z,43.00
2023-01-13T08:07:02.290Z,43.50
2023-01-13T08:09:30.328Z,40.70
2023-01-13T08:12:17.350Z,38.90
2023-01-13T08:14:47.020Z,43.00
2023-01-13T08:17:15.099Z,39.10
2023-01-13T08:19:46.609Z,41.00
2023-01-13T08:22:14.711Z,39.40
2023-01-13T08:24:42.796Z,39.10
2023-01-13T08:27:10.948Z,39.90
2023-01-13T08:29:39.172Z,40.40
2023-01-13T08:32:07.131Z,39.80
2023-01-13T08:34:37.015Z,35.00
2023-01-13T08:37:05.014Z,34.20
2023-01-13T08:39:33.196Z,31.60
2023-01-13T08:42:01.247Z,33.70
2023-01-13T08:44:31.152Z,34.80
2023-01-13T08:46:59.709Z,33.80
2023-01-13T08:49:27.898Z,30.50
2023-01-13T08:51:58.704Z,34.40
2023-01-13T08:54:26.795Z,37.40
2023-01-13T08:56:54.921Z,37.00
2023-01-13T08:59:23.044Z,36.00
2023-01-13T09:01:51.333Z,32.50
2023-01-13T09:04:22.935Z,35.60
2023-01-13T09:06:52.946Z,32.50
2023-01-13T09:09:22.421Z,32.20
2023-01-13T09:12:10.454Z,32.80
2023-01-13T09:14:40.413Z,35.80
2023-01-13T09:17:08.698Z,37.30
2023-01-13T09:19:39.453Z,41.90
2023-01-13T09:22:07.998Z,36.20
2023-01-13T09:24:36.330Z,44.20
2023-01-13T09:27:04.659Z,37.20
2023-01-13T09:29:32.726Z,37.90
2023-01-13T09:32:00.922Z,38.90
2023-01-13T09:34:49.893Z,37.00
2023-01-13T09:37:18.499Z,34.60
2023-01-13T09:39:51.822Z,38.90
2023-01-13T09:43:13.463Z,36.50
2023-01-13T09:46:06.439Z,37.70
2023-01-13T09:48:52.434Z,32.20
2023-01-13T09:51:42.729Z,42.80
2023-01-13T09:54:43.762Z,38.10
2023-01-13T09:57:15.019Z,34.90
2023-01-13T09:59:43.976Z,39.20
2023-01-13T10:02:36.159Z,40.70
2023-01-13T10:05:05.340Z,36.20
2023-01-13T10:07:37.165Z,35.10
2023-01-13T10:10:11.288Z,37.60
2023-01-13T10:13:11.352Z,36.60
2023-01-13T10:16:18.994Z,38.20
2023-01-13T10:19:22.872Z,40.80
2023-01-13T10:22:18.272Z,36.00
2023-01-13T10:25:24.513Z,38.30
2023-01-13T10:28:18.427Z,34.50
2023-01-13T10:30:50.320Z,36.80
2023-01-13T10:33:30.649Z,37.00
2023-01-13T10:36:14.436Z,34.50
2023-01-13T10:38:45.752Z,35.50
2023-01-13T10:44:04.570Z,31.00
2023-01-13T10:46:49.937Z,35.10
2023-01-13T10:49:38.562Z,37.60
2023-01-13T10:52:26.854Z,31.90
2023-01-13T10:54:56.030Z,32.70
2023-01-13T10:57:37.092Z,32.00
2023-01-13T11:00:36.472Z,35.60
2023-01-13T11:03:24.760Z,32.00
2023-01-13T11:09:40.172Z,31.00
2023-01-13T11:10:26.681Z,30.20
2023-01-13T11:13:16.137Z,33.10
2023-01-13T11:16:16.657Z,29.00
2023-01-13T11:19:15.290Z,32.60
2023-01-13T11:22:11.118Z,32.50
2023-01-13T11:24:54.682Z,30.60
2023-01-13T11:27:53.232Z,33.60
2023-01-13T11:30:50.838Z,32.40
2023-01-13T11:33:36.513Z,33.90
2023-01-13T11:36:17.780Z,27.80
2023-01-13T11:38:55.616Z,30.10
2023-01-13T11:42:15.203Z,32.80
2023-01-13T11:45:16.804Z,28.80
2023-01-13T11:47:51.429Z,31.00
2023-01-13T11:50:34.275Z,26.10
2023-01-13T11:53:18.562Z,32.50
2023-01-13T11:55:54.245Z,32.60
2023-01-13T11:58:54.463Z,32.70
2023-01-13T12:01:39.815Z,26.70
2023-01-13T12:04:23.342Z,29.10
2023-01-13T12:07:13.050Z,31.80
2023-01-13T12:10:13.686Z,29.30
2023-01-13T12:13:19.355Z,30.00
2023-01-13T12:16:25.948Z,29.20
2023-01-13T12:19:07.779Z,28.70
2023-01-13T12:21:54.669Z,34.00
2023-01-13T12:25:11.841Z,31.40
2023-01-13T12:27:56.586Z,30.70
2023-01-13T12:30:50.772Z,34.60
2023-01-13T12:34:09.991Z,29.90
2023-01-13T12:36:53.770Z,28.00
2023-01-13T12:39:50.474Z,32.10
2023-01-13T12:42:50.631Z,28.60
2023-01-13T12:45:19.979Z,30.70
2023-01-13T12:47:48.785Z,35.30
2023-01-13T12:50:26.392Z,33.00
2023-01-13T12:52:59.800Z,30.90
2023-01-13T12:55:38.397Z,31.50
2023-01-13T12:58:06.663Z,28.80
2023-01-13T13:00:57.159Z,30.20
2023-01-13T13:03:31.991Z,36.40
2023-01-13T13:06:08.113Z,31.80
2023-01-13T13:08:43.233Z,28.70
2023-01-13T13:11:53.163Z,33.00
2023-01-13T13:14:40.816Z,30.30
2023-01-13T13:17:19.918Z,30.00
2023-01-13T13:19:49.694Z,29.00
2023-01-13T13:22:21.192Z,30.10
2023-01-13T13:24:49.396Z,34.10
2023-01-13T13:27:46.205Z,26.80
2023-01-13T13:30:22.795Z,30.80
2023-01-13T13:33:12.483Z,30.10
2023-01-13T13:36:03.102Z,36.30
2023-01-13T13:39:17.441Z,33.30
2023-01-13T13:42:09.924Z,29.90
2023-01-13T13:45:01.306Z,26.40
2023-01-13T13:47:37.414Z,25.60
2023-01-13T13:50:13.116Z,27.90
2023-01-13T13:52:51.918Z,32.00
2023-01-13T13:55:28.821Z,26.00
2023-01-13T13:57:57.903Z,30.90
2023-01-13T14:00:36.163Z,31.70
2023-01-13T14:03:08.155Z,29.30
2023-01-13T14:05:37.717Z,32.60
2023-01-13T14:08:17.604Z,31.70
2023-01-13T14:10:48.769Z,29.90
2023-01-13T14:13:26.077Z,29.80
2023-01-13T14:16:11.066Z,30.60
2023-01-13T14:18:53.331Z,32.80
2023-01-13T14:21:27.407Z,32.50
2023-01-13T14:24:01.466Z,32.60
2023-01-13T14:26:31.940Z,33.70
2023-01-13T14:29:02.308Z,32.90
2023-01-13T14:31:31.980Z,33.60
2023-01-13T14:34:28.740Z,40.40
2023-01-13T14:36:53.382Z,36.30
2023-01-13T14:39:44.776Z,31.50
2023-01-13T14:42:14.399Z,36.90
2023-01-13T14:44:47.753Z,35.80
2023-01-13T14:47:26.917Z,36.60
2023-01-13T14:50:04.877Z,38.50
2023-01-13T14:52:36.445Z,38.10
2023-01-13T14:55:08.794Z,39.10
2023-01-13T14:57:42.401Z,34.70
2023-01-13T15:00:13.620Z,40.40
2023-01-13T15:02:58.657Z,38.60
2023-01-13T15:05:27.132Z,40.00
2023-01-13T15:08:14.051Z,47.40
2023-01-13T15:10:51.065Z,44.70
2023-01-13T15:13:37.760Z,48.50
2023-01-13T15:16:14.444Z,53.10
2023-01-13T15:18:43.092Z,50.50
2023-01-13T15:21:12.155Z,49.10
2023-01-13T15:23:41.363Z,50.50
2023-01-13T15:26:26.652Z,50.60
2023-01-13T15:28:57.397Z,46.00
2023-01-13T15:31:27.266Z,44.20
2023-01-13T15:34:00.244Z,45.00
2023-01-13T15:36:54.011Z,43.40
2023-01-13T15:39:24.547Z,46.40
2023-01-13T15:42:19.995Z,41.10
2023-01-13T15:45:06.949Z,40.80
2023-01-13T15:47:35.543Z,44.60
2023-01-13T15:50:09.333Z,46.10
2023-01-13T15:52:37.463Z,40.00
2023-01-13T15:55:05.676Z,40.90
2023-01-13T15:57:37.648Z,42.80
2023-01-13T16:00:16.598Z,40.20
2023-01-13T16:02:44.947Z,42.40
2023-01-13T16:05:13.511Z,44.10
2023-01-13T16:07:43.830Z,42.60
2023-01-13T16:10:23.010Z,44.60
2023-01-13T16:12:55.874Z,44.60
2023-01-13T16:15:28.034Z,46.70
2023-01-13T16:18:03.540Z,42.60
2023-01-13T16:20:52.800Z,43.50
2023-01-13T16:23:22.994Z,50.10
2023-01-13T16:25:51.180Z,43.70
2023-01-13T16:28:28.215Z,40.20
2023-01-13T16:30:56.415Z,45.20
2023-01-13T16:33:24.671Z,42.70
2023-01-13T16:36:10.879Z,44.10
2023-01-13T16:38:40.963Z,44.30
2023-01-13T16:41:10.208Z,49.00
2023-01-13T16:43:50.942Z,46.00
2023-01-13T16:46:26.335Z,45.80
2023-01-13T16:48:57.415Z,49.40
2023-01-13T16:51:25.581Z,47.20
2023-01-13T16:53:53.821Z,45.40
2023-01-13T16:56:27.858Z,41.40
2023-01-13T16:58:58.926Z,43.60
2023-01-13T17:01:30.199Z,45.60
2023-01-13T17:03:59.606Z,43.10
2023-01-13T17:06:37.625Z,45.70
2023-01-13T17:09:16.229Z,44.40
2023-01-13T17:11:44.511Z,46.80
2023-01-13T17:14:18.498Z,42.10
2023-01-13T17:16:47.859Z,41.80
2023-01-13T17:19:17.199Z,43.40
2023-01-13T17:21:47.155Z,44.20
2023-01-13T17:24:15.441Z,46.20
2023-01-13T17:26:48.680Z,42.40
2023-01-13T17:29:22.423Z,43.20
2023-01-13T17:31:51.674Z,44.30
2023-01-13T17:34:21.267Z,42.00
2023-01-13T17:36:49.726Z,51.00
2023-01-13T17:39:24.488Z,44.00
2023-01-13T17:41:55.942Z,48.60
2023-01-13T17:44:24.038Z,46.60
2023-01-13T17:46:52.217Z,49.90
2023-01-13T17:49:22.053Z,45.80
2023-01-13T17:51:51.546Z,41.90
2023-01-13T17:54:45.207Z,43.50
2023-01-13T17:57:13.723Z,38.20
2023-01-13T17:59:42.326Z,45.00
2023-01-13T18:02:13.363Z,38.90
2023-01-13T18:04:44.453Z,42.20
2023-01-13T18:07:17.504Z,44.40
2023-01-13T18:09:45.671Z,45.90
2023-01-13T18:12:16.051Z,50.10
2023-01-13T18:14:48.998Z,54.90
2023-01-13T18:17:18.658Z,58.10
2023-01-13T18:20:05.250Z,76.20
2023-01-13T18:24:59.814Z,70.60
2023-01-13T18:27:06.636Z,65.50
2023-01-13T18:29:34.722Z,66.10
2023-01-13T18:32:02.899Z,57.70
2023-01-13T18:34:31.067Z,123.10
2023-01-13T18:37:00.422Z,116.20
2023-01-13T18:39:39.521Z,95.40
2023-01-13T18:42:29.752Z,115.20
2023-01-13T18:45:01.848Z,118.70
2023-01-13T18:50:01.923Z,68.50
2023-01-13T18:52:30.332Z,74.30
2023-01-13T18:54:59.628Z,66.20
2023-01-13T18:57:30.168Z,82.60
2023-01-13T19:00:00.454Z,95.60
2023-01-13T19:02:31.887Z,84.50
2023-01-13T19:07:31.897Z,79.90
2023-01-13T19:10:09.735Z,71.60
2023-01-13T19:12:39.801Z,73.00
2023-01-13T19:15:11.395Z,78.30
2023-01-13T19:17:45.515Z,121.70
2023-01-13T19:20:16.309Z,99.10
2023-01-13T19:22:47.504Z,98.70
2023-01-13T19:25:17.609Z,150.90
2023-01-13T19:27:45.824Z,119.20
2023-01-13T19:30:14.616Z,127.10
2023-01-13T19:32:43.061Z,144.40
2023-01-13T19:35:17.079Z,126.70
2023-01-13T19:37:47.704Z,124.80
2023-01-13T19:40:23.490Z,116.10
2023-01-13T19:43:11.709Z,142.10
2023-01-13T19:45:40.225Z,139.20
2023-01-13T19:48:08.674Z,137.00
2023-01-13T19:50:42.106Z,136.10
2023-01-13T19:53:19.189Z,123.90
2023-01-13T19:55:49.368Z,109.40
2023-01-13T19:58:20.044Z,125.80
2023-01-13T20:00:48.718Z,124.10
2023-01-13T20:03:20.633Z,131.50
2023-01-13T20:05:51.922Z,118.90
2023-01-13T20:08:22.248Z,126.00
2023-01-13T20:10:50.551Z,123.20
2023-01-13T20:13:18.679Z,114.60
2023-01-13T20:15:47.015Z,167.80
2023-01-13T20:20:49.129Z,114.20
2023-01-13T20:23:17.517Z,142.70
2023-01-13T20:25:45.716Z,132.30
2023-01-13T20:28:13.887Z,130.80
2023-01-13T20:30:42.083Z,111.00
2023-01-13T20:33:14.644Z,110.20
2023-01-13T20:35:57.240Z,96.20
2023-01-13T20:38:25.487Z,120.60
2023-01-13T20:41:01.574Z,132.00
2023-01-13T20:43:37.243Z,127.50
2023-01-13T20:46:16.992Z,131.40
2023-01-13T20:48:45.161Z,131.50
2023-01-13T20:51:13.384Z,150.70
2023-01-13T20:53:41.755Z,153.70
2023-01-13T20:59:02.442Z,123.80
2023-01-13T21:01:33.169Z,127.20
2023-01-13T21:04:02.037Z,139.20
2023-01-13T21:06:37.264Z,126.60
2023-01-13T21:09:13.004Z,121.00
2023-01-13T21:12:12.071Z,118.40
2023-01-13T21:15:17.832Z,121.50
2023-01-13T21:18:07.298Z,117.10
2023-01-13T21:21:13.399Z,109.00
2023-01-13T21:23:43.560Z,117.90
2023-01-13T21:26:42.370Z,125.30
2023-01-13T21:29:26.682Z,134.00
2023-01-13T21:31:57.744Z,134.30
2023-01-13T21:34:28.234Z,155.00
2023-01-13T21:36:56.406Z,152.60
2023-01-13T21:39:24.473Z,158.70
2023-01-13T21:42:13.732Z,156.50
2023-01-13T21:47:57.022Z,123.20
2023-01-13T21:50:28.151Z,114.70
2023-01-13T21:53:03.822Z,127.80
2023-01-13T21:55:32.959Z,123.80
2023-01-13T21:58:35.553Z,109.00
2023-01-13T22:01:03.977Z,99.10
2023-01-13T22:03:52.226Z,102.80
2023-01-13T22:06:30.391Z,98.70
2023-01-13T22:09:11.033Z,96.70
2023-01-13T22:11:49.189Z,122.90
2023-01-13T22:14:18.652Z,109.90
2023-01-13T22:16:50.032Z,122.30
2023-01-13T22:19:18.835Z,100.20
2023-01-13T22:21:46.980Z,109.60
2023-01-13T22:24:15.672Z,123.60
2023-01-13T22:26:43.756Z,122.50
2023-01-13T22:29:11.818Z,108.40
2023-01-13T22:31:39.999Z,104.40
2023-01-13T22:34:08.157Z,104.30
2023-01-13T22:36:36.566Z,112.30
2023-01-13T22:39:07.182Z,102.60
2023-01-13T22:41:35.238Z,97.50
2023-01-13T22:44:09.358Z,107.70
2023-01-13T22:46:37.589Z,97.30
2023-01-13T22:49:42.494Z,101.40
2023-01-13T22:52:10.640Z,93.20
2023-01-13T22:54:38.692Z,99.00
2023-01-13T22:57:06.889Z,98.00
2023-01-13T22:59:37.459Z,102.00
2023-01-13T23:02:06.953Z,97.30
2023-01-13T23:04:35.370Z,116.60
2023-01-13T23:07:34.204Z,91.80
2023-01-13T23:09:55.090Z,94.50
2023-01-13T23:12:23.306Z,86.40
2023-01-13T23:14:51.450Z,83.20
2023-01-13T23:17:21.127Z,94.40
2023-01-13T23:19:49.280Z,89.70
2023-01-13T23:22:28.557Z,77.20
2023-01-13T23:24:56.723Z,89.50
2023-01-13T23:27:24.836Z,90.20
2023-01-13T23:29:56.127Z,79.30
2023-01-13T23:32:24.508Z,85.70
2023-01-13T23:34:53.617Z,82.90
2023-01-13T23:37:21.730Z,91.80
2023-01-13T23:39:52.054Z,84.10
2023-01-13T23:42:20.147Z,93.20
2023-01-13T23:44:48.222Z,88.70
2023-01-13T23:47:18.831Z,98.00
2023-01-13T23:49:46.975Z,93.40
2023-01-13T23:52:15.340Z,82.50
2023-01-13T23:54:43.548Z,104.90
2023-01-13T23:57:11.691Z,89.20
2023-01-13T23:59:43.076Z,116.80
